Time;durP1;ratioP1;P1;durP2;ratioP2;P2;SDS_P1;SDS_P2;PMS_P1;PMS_P2;Temp;Humidity;BMP_temperature;BMP_pressure;BME280_temperature;BME280_humidity;BME280_pressure;Samples;Min_cycle;Max_cycle;Signal;HPM_P1;HPM_P2
2022/11/17 00:02:25;;;;;;;9.73;4.53;;;;;;;8.88;100.00;98738.50;5124075;28;20031;-92
2022/11/17 00:04:50;;;;;;;8.48;4.03;;;;;;;8.87;100.00;98737.63;5098866;28;20055;-90
2022/11/17 00:07:16;;;;;;;5.93;3.93;;;;;;;8.92;100.00;98735.72;5094658;28;20020;-90
2022/11/17 00:09:53;;;;;;;8.13;4.27;;;;;;;8.90;100.00;98731.47;5095151;28;20027;-91
2022/11/17 00:15:11;;;;;;;11.73;4.85;;;;;;;8.95;100.00;98707.09;5094381;28;20034;-91
2022/11/17 00:17:39;;;;;;;10.02;4.75;;;;;;;9.02;100.00;98707.69;5095028;28;20032;-89
2022/11/17 00:22:49;;;;;;;8.45;4.70;;;;;;;8.99;100.00;98697.47;5095122;28;20043;-89
2022/11/17 00:25:14;;;;;;;9.27;4.90;;;;;;;9.05;100.00;98698.97;5094603;28;20017;-89
2022/11/17 00:27:40;;;;;;;9.27;4.63;;;;;;;9.00;100.00;98683.66;5097933;28;20097;-88
2022/11/17 00:30:06;;;;;;;9.90;4.87;;;;;;;9.07;100.00;98666.06;5114315;28;20478;-87
2022/11/17 00:35:15;;;;;;;7.80;4.25;;;;;;;8.99;100.00;98669.03;5114735;28;20035;-90
2022/11/17 00:38:14;;;;;;;11.47;5.00;;;;;;;9.06;100.00;98639.38;5114465;28;20039;-91
2022/11/17 00:40:29;;;;;;;9.20;4.22;;;;;;;9.02;100.00;98637.81;5112732;28;20023;-93
2022/11/17 00:42:54;;;;;;;8.47;4.10;;;;;;;9.12;100.00;98646.84;5114878;28;20027;-96
2022/11/17 00:45:19;;;;;;;10.10;4.27;;;;;;;9.08;100.00;98644.47;5114702;28;20024;-93
2022/11/17 00:47:45;;;;;;;10.63;4.07;;;;;;;9.09;100.00;98623.72;5114223;28;20016;-94
2022/11/17 00:50:10;;;;;;;8.83;4.20;;;;;;;9.04;100.00;98630.84;5115127;28;20077;-94
2022/11/17 00:52:35;;;;;;;8.38;4.03;;;;;;;9.11;100.00;98640.03;5114637;28;20106;-92
2022/11/17 00:55:01;;;;;;;10.43;3.90;;;;;;;9.09;100.00;98623.72;5114401;28;20070;-91
2022/11/17 00:57:26;;;;;;;7.53;3.55;;;;;;;9.02;100.00;98617.13;5114230;28;20049;-90
2022/11/17 00:59:52;;;;;;;8.33;4.20;;;;;;;9.10;100.00;98603.84;5114676;28;20023;-91
2022/11/17 01:02:17;;;;;;;5.97;3.63;;;;;;;9.08;100.00;98622.03;5110280;28;20046;-91
2022/11/17 01:04:42;;;;;;;9.20;3.77;;;;;;;9.04;100.00;98607.53;5114466;28;20024;-89
2022/11/17 01:07:08;;;;;;;6.05;3.60;;;;;;;9.05;100.00;98606.66;5114128;28;20032;-88
2022/11/17 01:09:33;;;;;;;6.07;3.50;;;;;;;9.04;100.00;98589.44;5113387;28;20031;-88
2022/11/17 01:11:58;;;;;;;5.70;3.60;;;;;;;9.04;100.00;98607.53;5114347;28;20430;-88
2022/11/17 01:14:26;;;;;;;6.10;3.40;;;;;;;9.18;100.00;98595.75;5113412;28;20475;-88
2022/11/17 01:16:53;;;;;;;7.28;3.53;;;;;;;9.12;100.00;98602.84;5113378;28;20028;-88
2022/11/17 01:19:19;;;;;;;6.47;3.28;;;;;;;9.17;100.00;98594.91;5113671;28;20153;-88
2022/11/17 01:21:54;;;;;;;8.68;2.97;;;;;;;9.16;100.00;98576.84;5113466;28;20391;-88
2022/11/17 01:24:19;;;;;;;7.20;3.38;;;;;;;9.12;100.00;98586.50;5113380;28;20387;-88
2022/11/17 01:26:45;;;;;;;6.60;3.00;;;;;;;9.12;100.00;98571.81;5117543;28;20107;-89
2022/11/17 01:29:13;;;;;;;6.07;3.05;;;;;;;9.18;100.00;98587.97;5116525;28;20031;-90
2022/11/17 01:31:54;;;;;;;3.08;2.47;;;;;;;9.16;100.00;98569.94;5117917;28;20538;-88
2022/11/17 01:34:20;;;;;;;3.60;2.40;;;;;;;9.17;100.00;98578.53;5100558;28;20042;-88
2022/11/17 01:39:30;;;;;;;5.32;2.45;;;;;;;9.18;100.00;98556.91;5097055;28;20146;-88
2022/11/17 01:41:56;;;;;;;2.78;2.20;;;;;;;9.22;100.00;98554.13;5097341;28;20032;-88
2022/11/17 01:44:43;;;;;;;4.45;2.30;;;;;;;9.33;100.00;98543.28;5096523;28;20048;-88
2022/11/17 01:47:20;;;;;;;2.55;2.17;;;;;;;9.29;100.00;98533.97;5096824;28;20111;-87
2022/11/17 01:49:46;;;;;;;3.20;1.98;;;;;;;9.31;100.00;98533.88;5096998;28;20028;-88
2022/11/17 01:52:31;;;;;;;2.47;1.90;;;;;;;9.32;100.00;98535.56;5112237;28;20473;-88
2022/11/17 01:55:05;;;;;;;2.28;1.70;;;;;;;9.32;100.00;98528.66;5117182;28;20023;-87
2022/11/17 01:57:57;;;;;;;2.10;1.90;;;;;;;9.38;100.00;98533.53;5116815;28;20032;-87
2022/11/17 02:00:23;;;;;;;1.83;1.73;;;;;;;9.40;100.00;98523.94;5116698;28;20050;-88
2022/11/17 02:02:49;;;;;;;2.33;2.07;;;;;;;9.40;100.00;98530.88;5116465;28;20103;-87
2022/11/17 02:05:59;;;;;;;2.20;2.00;;;;;;;9.44;100.00;98534.97;5115979;28;20016;-87
2022/11/17 02:08:27;;;;;;;4.57;2.20;;;;;;;9.40;100.00;98507.59;5116304;28;20039;-86
2022/11/17 02:10:53;;;;;;;2.88;2.00;;;;;;;9.40;100.00;98523.13;5116518;28;20051;-86
2022/11/17 02:16:05;;;;;;;2.00;1.80;;;;;;;9.39;100.00;98530.03;5116360;28;20116;-86
2022/11/17 02:18:45;;;;;;;3.30;1.90;;;;;;;9.42;100.00;98526.44;5115403;28;20062;-86
2022/11/17 02:21:52;;;;;;;2.97;2.28;;;;;;;9.49;100.00;98507.13;5116428;28;20027;-86
2022/11/17 02:24:39;;;;;;;3.15;1.98;;;;;;;9.55;100.00;98530.13;5094515;28;20445;-87
2022/11/17 02:27:33;;;;;;;2.67;2.03;;;;;;;9.52;100.00;98526.84;5115166;28;20036;-86
2022/11/17 02:30:09;;;;;;;2.17;1.70;;;;;;;9.50;100.00;98511.41;5116002;28;20028;-87
2022/11/17 02:32:53;;;;;;;2.70;1.98;;;;;;;9.50;100.00;98498.47;5115194;28;20522;-86
2022/11/17 02:35:25;;;;;;;2.03;1.83;;;;;;;9.49;100.00;98490.75;5115821;28;20059;-86
2022/11/17 02:37:50;;;;;;;2.58;1.70;;;;;;;9.49;100.00;98501.09;5115526;28;20052;-86
2022/11/17 02:40:29;;;;;;;1.60;1.50;;;;;;;9.50;100.00;98497.59;5114944;28;20022;-86
2022/11/17 02:45:52;;;;;;;1.70;1.60;;;;;;;9.49;100.00;98496.78;5116253;28;20123;-86
2022/11/17 02:48:28;;;;;;;2.00;1.80;;;;;;;9.50;100.00;98484.66;5114850;28;20031;-86
2022/11/17 02:50:56;;;;;;;1.55;1.45;;;;;;;9.51;100.00;98473.38;5115955;28;20376;-86
2022/11/17 02:53:24;;;;;;;3.35;1.88;;;;;;;9.54;100.00;98463.72;5114901;28;20038;-86
2022/11/17 02:55:51;;;;;;;1.70;1.52;;;;;;;9.52;100.00;98467.31;5115661;28;20026;-86
2022/11/17 02:58:17;;;;;;;1.73;1.45;;;;;;;9.51;100.00;98471.66;5115291;28;20062;-86
2022/11/17 03:00:58;;;;;;;1.93;1.67;;;;;;;9.51;100.00;98456.13;5115101;28;20023;-86
2022/11/17 03:03:31;;;;;;;2.88;1.70;;;;;;;9.56;100.00;98448.13;5115225;28;20027;-86
2022/11/17 03:06:06;;;;;;;2.63;1.65;;;;;;;9.51;100.00;98437.13;5115537;28;20034;-87
2022/11/17 03:08:51;;;;;;;1.85;1.73;;;;;;;9.47;100.00;98427.84;5114757;28;20039;-86
2022/11/17 03:11:22;;;;;;;1.60;1.45;;;;;;;9.56;100.00;98437.75;5114916;28;20024;-86
2022/11/17 03:14:13;;;;;;;3.25;1.73;;;;;;;9.50;100.00;98431.13;5114946;28;20046;-86
2022/11/17 03:16:54;;;;;;;1.80;1.70;;;;;;;9.44;100.00;98436.59;5114829;28;20023;-85
2022/11/17 03:19:32;;;;;;;1.52;1.40;;;;;;;9.43;100.00;98430.59;5114924;28;20026;-86
2022/11/17 03:22:08;;;;;;;1.42;1.33;;;;;;;9.40;100.00;98422.16;5114186;28;20038;-86
2022/11/17 03:24:54;;;;;;;1.75;1.60;;;;;;;9.43;100.00;98417.66;5115274;28;20051;-86
2022/11/17 03:27:24;;;;;;;1.20;1.20;;;;;;;9.40;100.00;98409.22;5114872;28;20027;-86
2022/11/17 03:29:54;;;;;;;1.45;1.35;;;;;;;9.37;100.00;98411.94;5114183;28;20111;-86
2022/11/17 03:32:22;;;;;;;1.45;1.35;;;;;;;9.33;100.00;98407.81;5114577;28;20032;-86
2022/11/17 03:35:27;;;;;;;2.22;1.20;;;;;;;9.32;100.00;98400.97;5114846;28;20106;-85
2022/11/17 03:38:11;;;;;;;1.50;1.20;;;;;;;9.33;100.00;98398.31;5114055;28;20066;-86
2022/11/17 03:40:42;;;;;;;0.90;0.90;;;;;;;9.27;100.00;98402.03;5114878;28;20035;-86
2022/11/17 03:43:25;;;;;;;1.25;0.90;;;;;;;9.20;100.00;98389.47;5114120;28;20024;-86
2022/11/17 03:45:57;;;;;;;0.77;0.77;;;;;;;9.22;100.00;98395.41;5114920;28;20090;-86
2022/11/17 03:48:48;;;;;;;1.50;1.13;;;;;;;9.25;100.00;98385.75;5113535;28;20076;-86
2022/11/17 03:51:22;;;;;;;1.30;0.80;;;;;;;9.26;100.00;98387.44;5113124;28;20028;-86
2022/11/17 03:53:48;;;;;;;1.13;0.63;;;;;;;9.28;100.00;98387.34;5114648;28;20126;-86
2022/11/17 03:56:47;;;;;;;1.85;0.85;;;;;;;9.22;100.00;98378.13;5114423;28;20026;-86
2022/11/17 03:59:18;;;;;;;0.88;0.80;;;;;;;9.25;100.00;98379.72;5114115;28;20042;-86
2022/11/17 04:01:44;;;;;;;0.80;0.55;;;;;;;9.30;100.00;98359.63;5114121;28;20028;-86
2022/11/17 04:04:21;;;;;;;0.80;0.60;;;;;;;9.30;100.00;98357.03;5113735;28;20043;-86
2022/11/17 04:06:48;;;;;;;2.55;1.05;;;;;;;9.33;100.00;98364.66;5114225;28;20126;-86
2022/11/17 04:09:13;;;;;;;1.33;0.57;;;;;;;9.41;100.00;98359.94;5113908;28;20224;-86
2022/11/17 04:17:07;;;;;;;1.23;0.98;;;;;;;9.49;100.00;98377.69;5113951;28;20489;-86
2022/11/17 04:19:32;;;;;;;1.70;1.20;;;;;;;9.52;100.00;98372.31;5113511;28;20048;-85
2022/11/17 04:21:57;;;;;;;1.53;1.27;;;;;;;9.55;100.00;98367.00;5113381;28;20023;-85
2022/11/17 04:24:23;;;;;;;2.57;1.53;;;;;;;9.57;100.00;98360.00;5113740;28;20495;-86
2022/11/17 04:29:33;;;;;;;1.92;1.65;;;;;;;9.58;100.00;98366.84;5114401;28;20035;-86
2022/11/17 04:31:58;;;;;;;2.95;2.13;;;;;;;9.66;100.00;98363.88;5113218;28;20031;-87
2022/11/17 04:34:24;;;;;;;2.47;2.20;;;;;;;9.65;100.00;98363.94;5113701;28;20026;-87
2022/11/17 04:36:50;;;;;;;2.20;2.00;;;;;;;9.61;100.00;98352.06;5113833;28;20016;-87
2022/11/17 04:39:15;;;;;;;3.13;2.00;;;;;;;9.64;100.00;98372.63;5113274;28;20146;-89
2022/11/17 04:41:53;;;;;;;2.10;1.90;;;;;;;9.58;100.00;98369.44;5114586;28;20020;-90
2022/11/17 04:44:24;;;;;;;2.50;1.80;;;;;;;9.57;100.00;98361.72;5114439;28;20525;-90
2022/11/17 04:46:49;;;;;;;3.63;2.25;;;;;;;9.51;100.00;98354.28;5114196;28;20048;-90
2022/11/17 04:49:16;;;;;;;1.90;1.80;;;;;;;9.52;100.00;98330.06;5114592;28;20031;-91
2022/11/17 04:51:41;;;;;;;;;;;;;;;9.48;100.00;98328.53;5115098;28;20015;-90
2022/11/17 04:54:09;;;;;;;2.60;2.00;;;;;;;9.46;100.00;98335.56;5114252;28;19961;-91
2022/11/17 04:56:35;;;;;;;3.53;2.20;;;;;;;9.45;100.00;98320.97;5114578;28;20035;-91
2022/11/17 04:59:00;;;;;;;2.63;1.97;;;;;;;9.44;100.00;98317.50;5114617;28;20156;-91
2022/11/17 05:01:27;;;;;;;2.83;1.87;;;;;;;9.48;100.00;98311.28;5113796;28;20032;-91
2022/11/17 05:03:53;;;;;;;3.05;1.80;;;;;;;9.40;100.00;98318.59;5114514;28;20020;-89
2022/11/17 05:06:24;;;;;;;2.30;1.70;;;;;;;9.36;100.00;98315.31;5114295;28;20019;-90
2022/11/17 05:08:54;;;;;;;2.03;1.55;;;;;;;9.36;100.00;98309.31;5127063;28;20030;-89
2022/11/17 05:14:04;;;;;;;2.38;1.52;;;;;;;9.36;100.00;98314.50;5114079;28;20101;-90
2022/11/17 05:19:18;;;;;;;1.60;1.50;;;;;;;9.34;100.00;98335.28;5114369;28;20438;-90
2022/11/17 05:21:43;;;;;;;2.85;1.60;;;;;;;9.37;100.00;98326.53;5114205;28;20015;-91
2022/11/17 05:24:08;;;;;;;2.37;1.77;;;;;;;9.36;100.00;98317.91;5114235;28;20023;-91
2022/11/17 05:26:36;;;;;;;3.33;1.60;;;;;;;9.37;100.00;98326.53;5113720;28;20031;-92
2022/11/17 05:29:04;;;;;;;3.67;1.20;;;;;;;9.38;100.00;98360.09;5113909;28;20024;-92
2022/11/17 05:31:29;;;;;;;2.72;1.48;;;;;;;9.39;100.00;98358.34;5114251;28;20020;-93
2022/11/17 05:33:55;;;;;;;4.27;1.80;;;;;;;9.41;100.00;98346.13;5114169;28;20032;-91
2022/11/17 05:36:24;;;;;;;3.97;1.43;;;;;;;9.43;100.00;98358.09;5113926;28;20065;-90
2022/11/17 05:38:50;;;;;;;5.07;1.35;;;;;;;9.45;100.00;98364.97;5113603;28;20442;-90
2022/11/17 05:41:16;;;;;;;1.73;1.00;;;;;;;9.43;100.00;98363.28;5114159;28;20024;-90
2022/11/17 05:43:42;;;;;;;1.98;1.10;;;;;;;9.43;100.00;98360.69;5113895;28;20020;-90
2022/11/17 05:46:07;;;;;;;5.80;1.60;;;;;;;9.44;100.00;98364.13;5113778;28;20032;-89
2022/11/17 05:48:33;;;;;;;1.77;1.17;;;;;;;9.45;100.00;98364.97;5113975;28;20102;-90
2022/11/17 05:50:59;;;;;;;3.40;1.30;;;;;;;9.47;100.00;98365.69;5113688;28;20376;-90
2022/11/17 05:53:25;;;;;;;4.75;1.30;;;;;;;9.43;100.00;98363.28;5113734;28;20023;-89
2022/11/17 05:55:50;;;;;;;3.80;1.17;;;;;;;9.45;100.00;98370.16;5113669;28;20020;-89
2022/11/17 05:58:25;;;;;;;3.40;1.15;;;;;;;9.45;100.00;98370.97;5113276;28;20031;-88
2022/11/17 06:00:52;;;;;;;2.80;1.08;;;;;;;9.46;100.00;98372.66;5114891;28;20026;-89
2022/11/17 06:03:20;;;;;;;;;;;;;;;9.48;100.00;98380.31;5113282;28;20490;-90
2022/11/17 06:05:46;;;;;;;4.82;1.40;;;;;;;9.48;100.00;98373.41;5113516;28;19958;-89
2022/11/17 06:08:11;;;;;;;2.63;1.23;;;;;;;9.47;100.00;98376.91;5113201;28;20028;-90
2022/11/17 06:10:36;;;;;;;2.67;1.10;;;;;;;9.47;100.00;98378.66;5101953;22;20426;-90
2022/11/17 06:13:02;;;;;;;2.97;1.10;;;;;;;9.48;100.00;98380.31;5096765;28;20028;-89
2022/11/17 06:15:28;;;;;;;2.67;1.03;;;;;;;9.47;100.00;98381.22;5096471;28;20383;-90
2022/11/17 06:18:04;;;;;;;2.53;1.20;;;;;;;9.49;100.00;98380.25;5096553;28;20027;-89
2022/11/17 06:20:34;;;;;;;4.10;1.50;;;;;;;9.48;100.00;98381.19;5096919;28;20074;-88
2022/11/17 06:23:03;;;;;;;6.05;1.80;;;;;;;9.48;100.00;98388.94;5096241;28;20016;-89
2022/11/17 06:25:29;;;;;;;4.22;1.20;;;;;;;9.47;100.00;98387.25;5096457;28;20024;-89
2022/11/17 06:27:57;;;;;;;4.67;1.40;;;;;;;9.48;100.00;98404.47;5096745;28;20554;-90
2022/11/17 06:30:22;;;;;;;5.63;1.60;;;;;;;9.48;100.00;98398.44;5095987;28;20540;-90
2022/11/17 06:32:48;;;;;;;2.30;1.13;;;;;;;9.49;100.00;98400.13;5096187;28;20115;-88
2022/11/17 06:35:15;;;;;;;7.78;1.40;;;;;;;9.45;100.00;98401.22;5087720;28;20035;-88
2022/11/17 06:37:41;;;;;;;3.22;1.60;;;;;;;9.42;100.00;98403.03;5095857;28;20020;-88
2022/11/17 06:40:08;;;;;;;4.20;1.50;;;;;;;9.41;100.00;98419.47;5094955;28;20405;-84
2022/11/17 06:45:18;;;;;;;2.25;1.20;;;;;;;9.35;100.00;98406.81;5094244;28;20039;-82
2022/11/17 06:47:43;;;;;;;2.87;0.93;;;;;;;9.33;100.00;98416.44;5095935;28;20024;-87
2022/11/17 06:50:09;;;;;;;3.17;1.10;;;;;;;9.33;100.00;98424.19;5095560;28;20407;-88
2022/11/17 06:52:34;;;;;;;3.77;1.20;;;;;;;9.30;100.00;98426.06;5094521;28;20027;-87
2022/11/17 06:54:59;;;;;;;2.93;1.20;;;;;;;9.31;100.00;98430.34;5095617;28;20125;-88
2022/11/17 06:57:25;;;;;;;0.90;0.80;;;;;;;9.25;100.00;98424.56;5095680;28;20020;-87
2022/11/17 06:59:51;;;;;;;2.40;0.90;;;;;;;9.23;100.00;98428.16;5095537;28;20095;-89
2022/11/17 07:02:16;;;;;;;2.37;1.03;;;;;;;9.22;100.00;98431.66;5096081;28;20058;-91
2022/11/17 07:04:42;;;;;;;2.07;1.00;;;;;;;9.22;100.00;98435.06;5096429;28;20026;-92
2022/11/17 07:07:07;;;;;;;1.97;0.93;;;;;;;9.20;100.00;98442.06;5095949;28;20464;-92
2022/11/17 07:09:32;;;;;;;2.37;0.80;;;;;;;9.18;100.00;98445.63;5095536;28;20173;-86
2022/11/17 07:11:58;;;;;;;4.00;1.37;;;;;;;9.12;100.00;98439.84;5094719;28;20024;-86
2022/11/17 07:14:23;;;;;;;5.00;1.33;;;;;;;9.12;100.00;98442.41;5093369;28;20032;-86
2022/11/17 07:16:48;;;;;;;3.07;1.07;;;;;;;9.16;100.00;98444.88;5094915;28;20051;-88
2022/11/17 07:19:13;;;;;;;2.93;1.37;;;;;;;9.10;100.00;98451.19;5094713;28;20106;-87
2022/11/17 07:21:39;;;;;;;1.77;0.87;;;;;;;9.08;100.00;98451.25;5094387;28;20118;-88
2022/11/17 07:24:04;;;;;;;1.50;0.93;;;;;;;9.07;100.00;98453.91;5094872;28;20077;-88
2022/11/17 07:26:30;;;;;;;1.87;1.07;;;;;;;9.05;100.00;98460.94;5091253;28;20068;-90
2022/11/17 07:28:55;;;;;;;3.13;0.90;;;;;;;9.05;100.00;98460.94;5095671;28;20023;-88
2022/11/17 07:31:21;;;;;;;1.63;0.90;;;;;;;9.03;100.00;98455.81;5094651;28;20562;-90
2022/11/17 07:33:46;;;;;;;1.77;1.10;;;;;;;9.02;100.00;98461.88;5095429;28;20031;-88
2022/11/17 07:36:15;;;;;;;1.63;0.60;;;;;;;8.99;100.00;98462.06;5093839;28;20117;-88
2022/11/17 07:38:41;;;;;;;1.48;0.80;;;;;;;8.98;100.00;98473.31;5094963;28;20031;-89
2022/11/17 07:41:22;;;;;;;5.07;1.30;;;;;;;8.95;100.00;98471.69;5092077;28;20507;-90
2022/11/17 07:43:47;;;;;;;3.30;0.98;;;;;;;8.94;100.00;98466.59;5094742;28;20071;-90
2022/11/17 07:46:13;;;;;;;2.73;1.13;;;;;;;8.92;100.00;98477.03;5086879;28;20413;-90
2022/11/17 07:48:40;;;;;;;2.83;1.00;;;;;;;8.92;100.00;98481.34;5094852;28;20020;-89
2022/11/17 07:51:22;;;;;;;2.20;1.10;;;;;;;8.88;100.00;98465.13;5096926;28;20476;-89
2022/11/17 07:53:47;;;;;;;2.28;1.10;;;;;;;8.87;100.00;98484.13;5094742;28;20043;-89
2022/11/17 07:56:12;;;;;;;4.73;1.10;;;;;;;8.87;100.00;98486.72;5086168;28;20024;-91
2022/11/17 07:58:39;;;;;;;2.27;0.80;;;;;;;8.86;100.00;98482.47;5095263;28;20042;-89
2022/11/17 08:01:26;;;;;;;2.80;0.80;;;;;;;8.87;100.00;98497.06;5094552;28;20080;-89
2022/11/17 08:03:51;;;;;;;2.55;1.10;;;;;;;8.90;100.00;98499.53;5094477;28;20070;-94
2022/11/17 08:06:16;;;;;;;1.07;0.70;;;;;;;8.89;100.00;98503.03;5094417;28;20016;-88
2022/11/17 08:08:42;;;;;;;2.17;0.88;;;;;;;8.91;100.00;98511.56;5093580;28;20560;-86
2022/11/17 08:11:09;;;;;;;2.60;1.20;;;;;;;8.93;100.00;98506.28;5092819;28;20020;-88
2022/11/17 08:13:35;;;;;;;2.17;0.95;;;;;;;8.91;100.00;98508.09;5094108;28;20052;-88
2022/11/17 08:16:01;;;;;;;0.83;0.77;;;;;;;8.91;100.00;98511.56;5094775;28;20058;-88
2022/11/17 08:18:27;;;;;;;2.20;0.83;;;;;;;8.93;100.00;98516.66;5093636;28;20476;-89
2022/11/17 08:21:12;;;;;;;1.88;0.68;;;;;;;8.91;100.00;98527.06;5093917;28;20464;-89
2022/11/17 08:23:38;;;;;;;2.22;1.02;;;;;;;8.92;100.00;98514.97;5094078;28;20016;-88
2022/11/17 08:26:06;;;;;;;2.75;1.10;;;;;;;8.90;100.00;98522.81;5093199;28;20105;-89
2022/11/17 08:28:32;;;;;;;0.90;0.75;;;;;;;8.91;100.00;98521.03;5094489;28;20063;-90
2022/11/17 08:31:03;;;;;;;1.48;1.00;;;;;;;8.89;100.00;98533.22;5093516;28;20024;-88
2022/11/17 08:33:28;;;;;;;3.28;0.90;;;;;;;8.89;100.00;98528.88;5093943;28;20024;-88
2022/11/17 08:35:58;;;;;;;3.40;0.90;;;;;;;8.87;100.00;98530.69;5093394;28;20024;-88
2022/11/17 08:38:27;;;;;;;1.25;0.80;;;;;;;8.88;100.00;98534.13;5093347;28;20529;-89
2022/11/17 08:40:56;;;;;;;1.23;0.90;;;;;;;8.85;100.00;98542.03;5093847;28;20028;-92
2022/11/17 08:43:22;;;;;;;1.13;0.80;;;;;;;8.83;100.00;98542.13;5094478;28;20392;-89
2022/11/17 08:45:47;;;;;;;2.20;0.87;;;;;;;8.81;100.00;98542.16;5093059;28;20020;-89
2022/11/17 08:48:12;;;;;;;2.90;0.80;;;;;;;8.79;100.00;98546.56;5093495;28;20482;-87
2022/11/17 08:50:37;;;;;;;1.37;1.20;;;;;;;8.78;100.00;98550.03;5092830;28;20027;-85
2022/11/17 08:53:03;;;;;;;1.77;0.63;;;;;;;8.77;100.00;98548.41;5092511;28;20027;-88
2022/11/17 08:55:28;;;;;;;3.43;1.03;;;;;;;8.76;100.00;98551.88;5094110;28;20095;-90
2022/11/17 08:57:53;;;;;;;1.43;0.97;;;;;;;8.74;100.00;98551.13;5094083;28;20020;-90
2022/11/17 09:00:20;;;;;;;3.13;0.80;;;;;;;8.72;100.00;98552.91;5093100;28;20106;-90
2022/11/17 09:02:46;;;;;;;3.70;1.02;;;;;;;8.71;100.00;98561.59;5093447;28;20063;-88
2022/11/17 09:05:11;;;;;;;2.30;0.90;;;;;;;8.70;100.00;98556.50;5093593;28;20091;-89
2022/11/17 09:07:36;;;;;;;1.27;0.70;;;;;;;8.71;100.00;98561.59;5092992;28;20024;-89
2022/11/17 09:10:05;;;;;;;4.00;1.37;;;;;;;8.73;100.00;98566.69;5092829;28;20071;-88
2022/11/17 09:12:31;;;;;;;1.13;0.82;;;;;;;8.74;100.00;98561.47;5093740;28;20473;-89
2022/11/17 09:14:56;;;;;;;1.57;0.93;;;;;;;8.75;100.00;98567.47;5093070;28;20024;-88
2022/11/17 09:17:21;;;;;;;0.82;0.80;;;;;;;8.75;100.00;98570.91;5093622;28;20055;-88
2022/11/17 09:19:47;;;;;;;2.27;1.07;;;;;;;8.76;100.00;98574.31;5093995;28;20085;-90
2022/11/17 09:22:12;;;;;;;1.30;0.70;;;;;;;8.83;100.00;98570.56;5093367;28;20043;-90
2022/11/17 09:24:37;;;;;;;3.20;1.10;;;;;;;8.79;100.00;98572.41;5093580;28;20070;-90
2022/11/17 09:27:03;;;;;;;3.13;1.00;;;;;;;8.79;100.00;98587.13;5092853;28;20469;-87
2022/11/17 09:29:29;;;;;;;1.47;0.93;;;;;;;8.80;100.00;98586.22;5093511;28;20091;-88
2022/11/17 09:31:54;;;;;;;2.45;0.90;;;;;;;8.79;100.00;98589.69;5093045;28;20376;-91
2022/11/17 09:34:20;;;;;;;1.90;0.93;;;;;;;8.80;100.00;98592.22;5093252;28;20042;-91
2022/11/17 09:36:47;;;;;;;0.97;0.87;;;;;;;8.80;100.00;98586.22;5093638;28;20410;-91
2022/11/17 09:39:13;;;;;;;2.88;1.13;;;;;;;8.82;100.00;98594.75;5094523;28;20078;-91
2022/11/17 09:41:42;;;;;;;0.80;0.80;;;;;;;8.85;100.00;98599.75;5095488;28;20028;-92
2022/11/17 09:44:27;;;;;;;1.27;1.00;;;;;;;8.88;100.00;98596.22;5114855;28;20081;-92
2022/11/17 09:47:11;;;;;;;2.30;1.40;;;;;;;8.92;100.00;98597.75;5094793;28;20126;-94
2022/11/17 09:50:03;;;;;;;2.30;1.15;;;;;;;8.98;100.00;98605.25;5097979;28;20050;-92
2022/11/17 09:52:42;;;;;;;2.33;1.10;;;;;;;9.02;100.00;98606.78;5097330;28;20028;-91
2022/11/17 09:55:07;;;;;;;2.05;1.15;;;;;;;9.08;100.00;98618.59;5097186;28;20451;-91
2022/11/17 09:57:37;;;;;;;2.20;1.40;;;;;;;9.16;100.00;98619.13;5097027;28;20032;-91
2022/11/17 10:00:12;;;;;;;2.65;1.20;;;;;;;9.21;100.00;98613.72;5096977;28;20106;-93
2022/11/17 10:02:38;;;;;;;3.72;1.10;;;;;;;9.25;100.00;98618.69;5097420;28;20392;-91
2022/11/17 10:05:05;;;;;;;5.13;1.47;;;;;;;9.33;100.00;98620.94;5097171;28;20024;-91
2022/11/17 10:07:32;;;;;;;;;;;;;;;9.34;100.00;98625.19;5097508;28;20020;-91
2022/11/17 10:10:01;;;;;;;3.10;1.20;;;;;;;9.34;100.00;98632.97;5096652;28;19916;-93
2022/11/17 10:12:34;;;;;;;2.55;1.30;;;;;;;9.38;100.00;98634.50;5096695;28;20071;-91
2022/11/17 10:15:21;;;;;;;3.72;1.30;;;;;;;9.41;100.00;98634.34;5096973;28;20047;-91
2022/11/17 10:17:47;;;;;;;1.52;1.00;;;;;;;9.46;100.00;98635.91;5096106;28;20494;-91
2022/11/17 10:20:17;;;;;;;5.63;1.20;;;;;;;9.51;100.00;98639.09;5096259;28;20020;-90
2022/11/17 10:22:44;;;;;;;2.40;1.30;;;;;;;9.57;100.00;98649.16;5102348;22;20048;-90
2022/11/17 10:25:36;;;;;;;2.63;1.00;;;;;;;9.66;100.00;98647.91;5096684;28;20066;-92
2022/11/17 10:28:03;;;;;;;1.67;1.08;;;;;;;9.76;100.00;98648.31;5096315;28;20035;-90
2022/11/17 10:30:28;;;;;;;2.88;1.15;;;;;;;9.76;100.00;98653.50;5096629;28;20028;-90
2022/11/17 10:32:56;;;;;;;3.33;1.07;;;;;;;9.77;100.00;98658.59;5096116;28;20391;-89
2022/11/17 10:35:33;;;;;;;2.58;1.10;;;;;;;9.82;100.00;98663.56;5096560;28;20070;-89
2022/11/17 10:38:19;;;;;;;3.53;1.00;;;;;;;9.87;100.00;98654.66;5090669;28;20353;-90
2022/11/17 10:40:50;;;;;;;2.40;1.15;;;;;;;9.98;100.00;98663.66;5096831;28;20028;-91
2022/11/17 10:43:24;;;;;;;3.08;1.10;;;;;;;10.01;98.45;98669.56;5096463;28;20020;-89
2022/11/17 10:45:58;;;;;;;3.05;1.17;;;;;;;10.05;98.42;98681.44;5106222;28;20046;-89
2022/11/17 10:48:26;;;;;;;2.22;1.20;;;;;;;10.09;97.00;98671.78;5095594;28;20479;-87
2022/11/17 10:51:18;;;;;;;2.00;1.00;;;;;;;10.12;99.16;98669.03;5095335;28;20100;-87
2022/11/17 10:54:18;;;;;;;1.40;0.85;;;;;;;10.12;97.27;98673.41;5094065;28;20115;-87
2022/11/17 10:56:48;;;;;;;1.77;1.10;;;;;;;10.10;97.35;98694.19;5094261;28;20040;-87
2022/11/17 10:59:23;;;;;;;0.93;0.80;;;;;;;10.07;97.63;98680.53;5094567;28;20020;-87
2022/11/17 11:01:51;;;;;;;3.05;1.10;;;;;;;10.06;97.60;98684.91;5095305;28;20464;-87
2022/11/17 11:04:34;;;;;;;3.22;1.15;;;;;;;10.05;97.54;98686.63;5095179;28;20024;-87
2022/11/17 11:07:18;;;;;;;2.00;1.00;;;;;;;10.05;96.90;98676.28;5094924;28;20024;-87
2022/11/17 11:10:10;;;;;;;1.77;1.08;;;;;;;10.04;98.21;98687.53;5095185;28;20480;-88
2022/11/17 11:12:58;;;;;;;2.50;1.15;;;;;;;10.01;97.52;98685.13;5094210;28;20055;-87
2022/11/17 11:15:27;;;;;;;2.75;1.15;;;;;;;10.01;98.49;98695.50;5094973;28;20058;-87
2022/11/17 11:17:52;;;;;;;3.15;1.10;;;;;;;9.97;97.01;98691.34;5095183;28;20052;-87
2022/11/17 11:20:22;;;;;;;4.13;1.20;;;;;;;9.96;98.35;98697.44;5094548;28;20106;-87
2022/11/17 11:23:14;;;;;;;4.00;1.23;;;;;;;10.01;97.99;98699.81;5094964;28;20051;-86
2022/11/17 11:26:07;;;;;;;2.13;1.30;;;;;;;10.00;98.57;98706.75;5055978;28;20032;-88
2022/11/17 11:28:49;;;;;;;1.58;1.08;;;;;;;10.00;98.25;98699.00;5094506;28;20361;-88
2022/11/17 11:31:29;;;;;;;2.45;1.20;;;;;;;9.98;98.14;98703.41;5094147;28;20178;-88
2022/11/17 11:34:15;;;;;;;1.45;1.17;;;;;;;10.00;98.57;98719.72;5094368;28;20055;-88
2022/11/17 11:36:52;;;;;;;2.92;1.02;;;;;;;10.01;98.24;98705.00;5095049;28;20495;-89
2022/11/17 11:39:45;;;;;;;2.10;1.20;;;;;;;10.01;97.74;98716.22;5094800;28;20056;-87
2022/11/17 11:42:27;;;;;;;4.88;1.65;;;;;;;10.03;97.06;98713.53;5073584;28;20032;-88
2022/11/17 11:45:04;;;;;;;4.80;1.40;;;;;;;10.02;97.37;98724.81;5074527;28;20025;-88
2022/11/17 11:47:49;;;;;;;2.90;1.20;;;;;;;10.03;96.94;98721.31;5074720;28;20028;-88
2022/11/17 11:50:22;;;;;;;1.88;0.98;;;;;;;10.00;97.01;98718.88;5073289;28;20025;-88
2022/11/17 11:52:54;;;;;;;2.28;1.33;;;;;;;10.01;96.76;98729.19;5073706;28;20107;-87
2022/11/17 11:55:33;;;;;;;1.67;1.00;;;;;;;10.01;96.69;98718.81;5073348;28;20028;-88
2022/11/17 11:58:18;;;;;;;3.80;1.60;;;;;;;10.01;96.27;98729.19;5074247;28;20068;-88
2022/11/17 12:00:44;;;;;;;3.30;1.15;;;;;;;10.00;96.34;98730.09;5074213;28;20029;-89
2022/11/17 12:03:34;;;;;;;2.58;1.15;;;;;;;10.03;97.34;98734.28;5073321;28;20033;-88
2022/11/17 12:06:38;;;;;;;2.95;1.23;;;;;;;10.01;95.78;98741.28;5089386;28;20024;-88
2022/11/17 12:09:20;;;;;;;3.78;1.20;;;;;;;10.02;94.52;98738.59;5093076;28;20036;-88
2022/11/17 12:12:00;;;;;;;1.65;1.20;;;;;;;10.00;95.78;98734.41;5079873;28;20051;-88
2022/11/17 12:14:34;;;;;;;2.85;0.90;;;;;;;10.01;95.57;98742.13;5094293;28;20361;-89
2022/11/17 12:17:22;;;;;;;2.30;1.23;;;;;;;10.03;96.10;98739.47;5093530;28;20043;-89
2022/11/17 12:19:52;;;;;;;4.57;1.45;;;;;;;10.05;95.92;98741.06;5094050;28;20024;-88
2022/11/17 12:22:33;;;;;;;2.15;0.90;;;;;;;10.08;95.04;98747.84;5095296;28;20114;-88
2022/11/17 12:25:37;;;;;;;2.67;1.05;;;;;;;10.10;94.98;98743.44;5093105;28;20157;-87
2022/11/17 12:28:26;;;;;;;2.17;0.95;;;;;;;10.11;94.78;98757.25;5092855;28;20036;-88